createdAt,value
2019-02-10T00:01:02.360Z,3.17
2019-02-10T00:03:30.929Z,3.90
2019-02-10T00:05:59.450Z,4.23
2019-02-10T00:08:27.983Z,4.40
2019-02-10T00:10:56.565Z,3.97
2019-02-10T00:13:32.509Z,3.13
2019-02-10T00:16:03.605Z,4.00
2019-02-10T00:18:32.071Z,3.90
2019-02-10T00:21:01.608Z,3.00
2019-02-10T00:23:30.074Z,3.87
2019-02-10T00:25:58.793Z,3.77
2019-02-10T00:28:27.245Z,3.60
2019-02-10T00:30:55.764Z,2.83
2019-02-10T00:33:24.223Z,3.60
2019-02-10T00:35:52.680Z,10.63
2019-02-10T00:38:21.179Z,8.27
2019-02-10T00:40:49.639Z,7.50
2019-02-10T00:43:18.311Z,6.40
2019-02-10T00:45:46.804Z,7.07
2019-02-10T00:48:15.345Z,5.87
2019-02-10T00:50:44.160Z,9.77
2019-02-10T00:53:12.844Z,8.10
2019-02-10T00:55:41.370Z,16.23
2019-02-10T00:58:09.821Z,25.00
2019-02-10T01:00:38.633Z,26.00
2019-02-10T01:03:07.182Z,16.40
2019-02-10T01:05:35.724Z,8.40
2019-02-10T01:08:04.469Z,5.93
2019-02-10T01:10:33.095Z,5.30
2019-02-10T01:13:02.808Z,5.43
2019-02-10T01:15:31.270Z,4.73
2019-02-10T01:17:59.807Z,4.00
2019-02-10T01:20:28.296Z,3.93
2019-02-10T01:22:56.757Z,6.57
2019-02-10T01:25:25.365Z,3.10
2019-02-10T01:27:53.832Z,3.13
2019-02-10T01:30:22.346Z,3.50
2019-02-10T01:32:50.812Z,3.37
2019-02-10T01:35:19.268Z,3.23
2019-02-10T01:37:47.774Z,2.73
2019-02-10T01:40:16.282Z,3.77
2019-02-10T01:42:44.710Z,4.97
2019-02-10T01:45:13.301Z,4.23
2019-02-10T01:47:41.903Z,3.00
2019-02-10T01:50:11.411Z,4.17
2019-02-10T01:52:39.932Z,3.10
2019-02-10T01:55:13.138Z,4.30
2019-02-10T01:57:42.197Z,3.93
2019-02-10T02:00:14.001Z,3.17
2019-02-10T02:02:42.546Z,3.73
2019-02-10T02:05:11.281Z,3.40
2019-02-10T02:07:39.797Z,3.07
2019-02-10T02:10:10.954Z,3.90
2019-02-10T02:12:39.427Z,3.00
2019-02-10T02:15:13.666Z,3.10
2019-02-10T02:17:42.119Z,2.97
2019-02-10T02:20:12.125Z,3.10
2019-02-10T02:22:40.581Z,2.97
2019-02-10T02:25:10.479Z,2.87
2019-02-10T02:27:39.103Z,3.03
2019-02-10T02:30:10.292Z,3.47
2019-02-10T02:32:38.884Z,3.73
2019-02-10T02:35:07.517Z,2.97
2019-02-10T02:37:35.971Z,2.50
2019-02-10T02:40:06.268Z,3.57
2019-02-10T02:42:34.794Z,3.27
2019-02-10T02:45:03.290Z,3.23
2019-02-10T02:47:31.809Z,2.60
2019-02-10T02:50:00.474Z,2.80
2019-02-10T02:52:28.991Z,3.43
2019-02-10T02:54:57.442Z,2.97
2019-02-10T02:57:25.900Z,2.83
2019-02-10T02:59:54.371Z,3.43
2019-02-10T03:02:23.235Z,3.37
2019-02-10T03:04:51.684Z,3.33
2019-02-10T03:07:20.147Z,3.07
2019-02-10T03:09:48.594Z,3.23
2019-02-10T03:12:17.105Z,2.97
2019-02-10T03:14:45.571Z,2.53
2019-02-10T03:17:14.068Z,2.87
2019-02-10T03:19:42.581Z,3.17
2019-02-10T03:22:11.048Z,3.27
2019-02-10T03:24:39.507Z,3.27
2019-02-10T03:27:07.967Z,3.07
2019-02-10T03:29:36.417Z,3.90
2019-02-10T03:32:04.954Z,3.47
2019-02-10T03:34:33.447Z,3.03
2019-02-10T03:37:01.984Z,3.43
2019-02-10T03:39:30.473Z,2.80
2019-02-10T03:41:58.976Z,2.63
2019-02-10T03:44:27.476Z,3.30
2019-02-10T03:46:55.949Z,3.20
2019-02-10T03:49:24.487Z,3.70
2019-02-10T03:51:52.949Z,3.00
2019-02-10T03:54:21.403Z,3.07
2019-02-10T03:56:50.178Z,3.07
2019-02-10T03:59:18.863Z,3.20
2019-02-10T04:01:47.473Z,3.83
2019-02-10T04:04:15.987Z,3.50
2019-02-10T04:06:44.450Z,2.90
2019-02-10T04:09:12.895Z,2.83
2019-02-10T04:11:41.353Z,3.00
2019-02-10T04:14:09.810Z,2.70
2019-02-10T04:16:40.927Z,2.80
2019-02-10T04:19:09.402Z,2.70
2019-02-10T04:21:37.894Z,2.90
2019-02-10T04:24:06.632Z,2.90
2019-02-10T04:26:35.161Z,3.30
2019-02-10T04:29:03.695Z,3.00
2019-02-10T04:31:32.151Z,2.87
2019-02-10T04:34:00.726Z,2.80
2019-02-10T04:36:29.167Z,3.43
2019-02-10T04:38:57.623Z,3.13
2019-02-10T04:41:26.079Z,3.30
2019-02-10T04:43:54.530Z,2.83
2019-02-10T04:46:22.970Z,2.57
2019-02-10T04:48:51.428Z,3.10
2019-02-10T04:51:19.885Z,2.90
2019-02-10T04:53:48.351Z,3.20
2019-02-10T04:56:17.277Z,3.17
2019-02-10T04:58:45.793Z,3.10
2019-02-10T05:01:14.312Z,3.70
2019-02-10T05:03:42.771Z,3.07
2019-02-10T05:06:11.249Z,3.17
2019-02-10T05:08:41.412Z,2.77
2019-02-10T05:11:10.331Z,3.10
2019-02-10T05:13:38.734Z,2.90
2019-02-10T05:16:07.142Z,2.80
2019-02-10T05:18:35.554Z,3.00
2019-02-10T05:21:03.963Z,3.13
2019-02-10T05:23:32.362Z,2.83
2019-02-10T05:26:00.775Z,2.70
2019-02-10T05:28:29.495Z,2.80
2019-02-10T05:30:57.906Z,2.73
2019-02-10T05:33:26.343Z,2.60
2019-02-10T05:35:54.748Z,2.80
2019-02-10T05:38:23.153Z,2.90
2019-02-10T05:40:51.566Z,2.43
2019-02-10T05:43:19.975Z,2.93
2019-02-10T05:45:48.379Z,3.03
2019-02-10T05:48:16.779Z,2.60
2019-02-10T05:50:45.515Z,2.90
2019-02-10T05:53:13.929Z,3.10
2019-02-10T05:55:42.413Z,3.17
2019-02-10T05:58:10.811Z,2.97
2019-02-10T06:00:39.230Z,3.37
2019-02-10T06:03:07.632Z,2.87
2019-02-10T06:05:36.124Z,3.10
2019-02-10T06:08:12.667Z,2.80
2019-02-10T06:10:34.661Z,2.30
2019-02-10T06:13:03.061Z,2.70
2019-02-10T06:15:31.478Z,2.80
2019-02-10T06:17:59.878Z,3.10
2019-02-10T06:20:28.588Z,2.80
2019-02-10T06:22:57.046Z,3.13
2019-02-10T06:25:25.456Z,2.73
2019-02-10T06:27:53.859Z,2.87
2019-02-10T06:30:22.256Z,2.57
2019-02-10T06:32:50.660Z,3.20
2019-02-10T06:35:19.058Z,3.33
2019-02-10T06:37:47.466Z,2.70
2019-02-10T06:40:15.875Z,2.77
2019-02-10T06:42:44.285Z,3.13
2019-02-10T06:45:12.680Z,2.93
2019-02-10T06:47:41.094Z,2.70
2019-02-10T06:50:09.574Z,3.00
2019-02-10T06:52:37.983Z,2.97
2019-02-10T06:55:27.312Z,3.03
2019-02-10T06:57:55.775Z,2.60
2019-02-10T07:00:28.555Z,3.10
2019-02-10T07:03:26.562Z,2.47
2019-02-10T07:05:55.071Z,2.67
2019-02-10T07:08:30.658Z,2.47
2019-02-10T07:10:59.217Z,2.53
2019-02-10T07:13:33.178Z,2.60
2019-02-10T07:16:30.409Z,2.80
2019-02-10T07:19:35.707Z,2.63
2019-02-10T07:22:42.339Z,2.53
2019-02-10T07:25:13.932Z,2.80
2019-02-10T07:27:42.379Z,3.00
2019-02-10T07:30:13.961Z,2.80
2019-02-10T07:32:45.558Z,2.73
2019-02-10T07:35:28.964Z,2.87
2019-02-10T07:38:21.711Z,2.77
2019-02-10T07:41:12.667Z,2.50
2019-02-10T07:44:11.590Z,2.77
2019-02-10T07:47:01.552Z,2.60
2019-02-10T07:49:45.185Z,2.70
2019-02-10T07:52:25.417Z,2.00
2019-02-10T07:54:59.703Z,2.80
2019-02-10T07:57:40.398Z,2.20
2019-02-10T08:00:18.066Z,2.20
2019-02-10T08:02:52.812Z,2.20
2019-02-10T08:05:54.381Z,2.37
2019-02-10T08:08:46.463Z,2.40
2019-02-10T08:11:33.749Z,2.10
2019-02-10T08:14:20.593Z,2.23
2019-02-10T08:16:55.115Z,2.37
2019-02-10T08:19:35.795Z,2.33
2019-02-10T08:22:33.099Z,2.20
2019-02-10T08:25:16.827Z,2.07
2019-02-10T08:28:11.218Z,2.50
2019-02-10T08:31:00.913Z,2.67
2019-02-10T08:33:35.115Z,2.00
2019-02-10T08:36:15.268Z,2.17
2019-02-10T08:38:54.445Z,2.20
2019-02-10T08:41:28.722Z,2.13
2019-02-10T08:44:12.156Z,2.27
2019-02-10T08:46:52.655Z,2.40
2019-02-10T08:49:26.912Z,3.13
2019-02-10T08:52:04.189Z,3.90
2019-02-10T08:54:32.696Z,5.63
2019-02-10T08:57:01.167Z,2.63
2019-02-10T08:59:29.638Z,2.60
2019-02-10T09:01:58.092Z,2.17
2019-02-10T09:04:26.720Z,3.87
2019-02-10T09:06:55.342Z,1.73
2019-02-10T09:09:23.790Z,1.80
2019-02-10T09:11:52.308Z,2.17
2019-02-10T09:14:20.854Z,2.10
2019-02-10T09:16:49.587Z,2.27
2019-02-10T09:19:18.051Z,2.40
2019-02-10T09:21:46.510Z,1.90
2019-02-10T09:24:14.969Z,2.07
2019-02-10T09:26:43.500Z,2.00
2019-02-10T09:29:12.055Z,1.87
2019-02-10T09:31:40.556Z,1.90
2019-02-10T09:34:09.212Z,2.20
2019-02-10T09:36:37.736Z,2.00
2019-02-10T09:39:10.800Z,2.10
2019-02-10T09:41:37.198Z,1.60
2019-02-10T09:44:05.652Z,1.83
2019-02-10T09:46:34.121Z,1.63
2019-02-10T09:49:02.580Z,1.67
2019-02-10T09:51:31.076Z,1.70
2019-02-10T09:53:59.547Z,3.10
2019-02-10T09:56:28.101Z,2.10
2019-02-10T09:58:56.596Z,2.10
2019-02-10T10:01:25.061Z,1.90
2019-02-10T10:03:53.588Z,1.63
2019-02-10T10:06:22.691Z,2.23
2019-02-10T10:08:51.279Z,2.00
2019-02-10T10:11:19.784Z,1.57
2019-02-10T10:13:48.252Z,1.40
2019-02-10T10:16:16.714Z,1.33
2019-02-10T10:18:45.172Z,1.30
2019-02-10T10:21:13.639Z,1.30
2019-02-10T10:23:42.139Z,1.40
2019-02-10T10:26:10.654Z,1.40
2019-02-10T10:28:39.110Z,1.70
2019-02-10T10:31:07.559Z,1.70
2019-02-10T10:33:36.003Z,1.90
2019-02-10T10:36:04.459Z,1.43
2019-02-10T10:38:33.012Z,1.50
2019-02-10T10:41:01.545Z,1.37
2019-02-10T10:43:30.076Z,1.37
2019-02-10T10:45:58.544Z,1.03
2019-02-10T10:48:26.999Z,1.00
2019-02-10T10:50:55.460Z,1.23
2019-02-10T10:53:23.910Z,1.20
2019-02-10T10:55:52.719Z,1.80
2019-02-10T10:58:21.188Z,12.40
2019-02-10T11:00:49.749Z,4.07
2019-02-10T11:03:18.226Z,12.07
2019-02-10T11:05:46.680Z,1.87
2019-02-10T11:08:15.191Z,2.67
2019-02-10T11:10:43.635Z,1.90
2019-02-10T11:13:12.162Z,2.20
2019-02-10T11:15:40.637Z,1.73
2019-02-10T11:18:09.151Z,1.20
2019-02-10T11:20:37.614Z,1.40
2019-02-10T11:23:06.086Z,1.90
2019-02-10T11:25:34.543Z,1.50
2019-02-10T11:28:03.077Z,1.10
2019-02-10T11:30:31.974Z,1.40
2019-02-10T11:33:00.425Z,1.40
2019-02-10T11:35:28.986Z,1.70
2019-02-10T11:37:57.435Z,2.13
2019-02-10T11:40:25.891Z,1.50
2019-02-10T11:42:54.718Z,1.40
2019-02-10T11:45:23.347Z,1.40
2019-02-10T11:47:52.152Z,1.50
2019-02-10T11:50:20.611Z,1.50
2019-02-10T11:52:49.095Z,1.50
2019-02-10T11:55:17.563Z,1.20
2019-02-10T11:57:46.032Z,1.80
2019-02-10T12:00:18.393Z,1.33
2019-02-10T12:02:46.919Z,1.20
2019-02-10T12:05:15.491Z,1.40
2019-02-10T12:07:43.973Z,1.53
2019-02-10T12:10:13.589Z,1.23
2019-02-10T12:12:42.188Z,1.20
2019-02-10T12:15:15.024Z,1.60
2019-02-10T12:17:43.467Z,1.50
2019-02-10T12:20:13.472Z,1.97
2019-02-10T12:22:49.610Z,2.13
2019-02-10T12:25:12.225Z,2.10
2019-02-10T12:27:40.829Z,3.10
2019-02-10T12:30:14.473Z,1.90
2019-02-10T12:32:43.228Z,1.83
2019-02-10T12:35:12.260Z,1.67
2019-02-10T12:37:40.819Z,1.87
2019-02-10T12:40:10.829Z,2.07
2019-02-10T12:42:39.297Z,2.60
2019-02-10T12:45:12.680Z,1.60
2019-02-10T12:47:41.200Z,1.83
2019-02-10T12:50:12.082Z,1.80
2019-02-10T12:52:40.607Z,2.17
2019-02-10T12:55:10.417Z,2.03
2019-02-10T12:57:38.867Z,2.17
2019-02-10T13:00:13.264Z,1.77
2019-02-10T13:02:41.786Z,2.00
2019-02-10T13:05:10.431Z,2.10
2019-02-10T13:07:39.023Z,2.20
2019-02-10T13:10:12.810Z,1.47
2019-02-10T13:12:41.249Z,2.23
2019-02-10T13:15:10.844Z,2.10
2019-02-10T13:17:39.315Z,2.23
2019-02-10T13:20:11.880Z,2.33
2019-02-10T13:22:40.337Z,1.83
2019-02-10T13:25:11.204Z,1.90
2019-02-10T13:27:39.674Z,1.80
2019-02-10T13:30:11.267Z,2.23
2019-02-10T13:32:39.740Z,2.37
2019-02-10T13:35:08.375Z,2.60
2019-02-10T13:37:36.927Z,3.00
2019-02-10T13:40:17.267Z,2.23
2019-02-10T13:42:45.878Z,2.40
2019-02-10T13:45:14.359Z,3.10
2019-02-10T13:47:42.918Z,2.10
2019-02-10T13:50:16.528Z,2.03
2019-02-10T13:52:45.128Z,2.80
2019-02-10T13:55:17.041Z,2.60
2019-02-10T13:57:45.608Z,2.00
2019-02-10T14:00:22.456Z,2.10
2019-02-10T14:02:51.046Z,1.90
2019-02-10T14:05:19.515Z,1.70
2019-02-10T14:07:48.040Z,1.60
2019-02-10T14:10:24.996Z,1.93
2019-02-10T14:12:47.323Z,2.10
2019-02-10T14:15:17.254Z,1.83
2019-02-10T14:17:45.714Z,1.80
2019-02-10T14:20:16.288Z,2.00
2019-02-10T14:22:44.761Z,2.70
2019-02-10T14:25:13.388Z,2.10
2019-02-10T14:27:41.829Z,2.23
2019-02-10T14:30:23.725Z,3.47
2019-02-10T14:32:52.187Z,2.60
2019-02-10T14:35:20.642Z,2.73
2019-02-10T14:37:49.692Z,2.10
2019-02-10T14:40:18.220Z,2.50
2019-02-10T14:42:46.721Z,2.10
2019-02-10T14:45:18.093Z,2.03
2019-02-10T14:47:46.645Z,2.23
2019-02-10T14:50:19.198Z,2.57
2019-02-10T14:52:47.727Z,2.10
2019-02-10T14:55:16.254Z,2.30
2019-02-10T14:57:44.720Z,2.63
2019-02-10T15:00:15.793Z,2.63
2019-02-10T15:02:44.319Z,2.33
2019-02-10T15:05:12.849Z,2.90
2019-02-10T15:07:41.391Z,2.37
2019-02-10T15:10:15.802Z,2.10
2019-02-10T15:12:44.311Z,2.23
2019-02-10T15:15:12.765Z,3.63
2019-02-10T15:17:41.302Z,2.83
2019-02-10T15:20:11.016Z,2.80
2019-02-10T15:22:39.477Z,2.00
2019-02-10T15:25:13.075Z,2.53
2019-02-10T15:27:41.546Z,2.40
2019-02-10T15:30:14.950Z,2.60
2019-02-10T15:32:43.395Z,1.90
2019-02-10T15:35:12.116Z,2.30
2019-02-10T15:37:40.689Z,2.43
2019-02-10T15:40:11.853Z,3.27
2019-02-10T15:42:40.469Z,2.20
2019-02-10T15:45:14.183Z,1.97
2019-02-10T15:47:42.663Z,2.10
2019-02-10T15:50:14.825Z,1.90
2019-02-10T15:52:43.262Z,1.40
2019-02-10T15:55:12.753Z,1.73
2019-02-10T15:57:41.294Z,1.50
2019-02-10T16:00:15.931Z,1.20
2019-02-10T16:02:44.446Z,1.47
2019-02-10T16:05:12.971Z,1.80
2019-02-10T16:07:41.487Z,1.40
2019-02-10T16:10:11.306Z,1.20
2019-02-10T16:12:39.770Z,1.30
2019-02-10T16:15:10.668Z,1.37
2019-02-10T16:17:39.174Z,1.47
2019-02-10T16:20:10.584Z,1.30
2019-02-10T16:22:39.116Z,1.10
2019-02-10T16:25:08.503Z,1.10
2019-02-10T16:27:36.960Z,1.30
2019-02-10T16:30:10.828Z,1.90
2019-02-10T16:32:39.295Z,1.40
2019-02-10T16:35:08.507Z,1.20
2019-02-10T16:37:36.945Z,1.30
2019-02-10T16:40:17.359Z,1.40
2019-02-10T16:42:45.773Z,1.47
2019-02-10T16:45:14.660Z,1.40
2019-02-10T16:47:43.129Z,1.37
2019-02-10T16:50:13.691Z,1.47
2019-02-10T16:52:42.216Z,1.20
2019-02-10T16:55:12.990Z,1.27
2019-02-10T16:57:41.465Z,1.50
2019-02-10T17:00:12.851Z,1.30
2019-02-10T17:02:41.305Z,1.40
2019-02-10T17:05:09.911Z,0.93
2019-02-10T17:07:38.534Z,1.00
2019-02-10T17:10:12.494Z,1.00
2019-02-10T17:12:40.946Z,1.10
2019-02-10T17:15:11.420Z,1.10
2019-02-10T17:17:39.938Z,1.10
2019-02-10T17:20:10.993Z,1.23
2019-02-10T17:22:39.788Z,1.00
2019-02-10T17:25:11.371Z,0.73
2019-02-10T17:27:39.927Z,0.60
2019-02-10T17:30:11.325Z,0.80
2019-02-10T17:32:39.919Z,0.63
2019-02-10T17:35:10.722Z,0.80
2019-02-10T17:37:39.242Z,0.50
2019-02-10T17:40:16.564Z,0.70
2019-02-10T17:42:45.029Z,0.60
2019-02-10T17:45:13.470Z,0.60
2019-02-10T17:47:41.937Z,0.60
2019-02-10T17:50:12.125Z,0.70
2019-02-10T17:52:40.614Z,0.47
2019-02-10T17:55:09.868Z,0.40
2019-02-10T17:57:38.358Z,0.40
2019-02-10T18:00:15.493Z,0.53
2019-02-10T18:02:44.000Z,0.50
2019-02-10T18:05:12.527Z,0.40
2019-02-10T18:07:41.065Z,0.90
2019-02-10T18:10:12.689Z,0.73
2019-02-10T18:12:41.156Z,0.60
2019-02-10T18:15:12.686Z,0.40
2019-02-10T18:17:42.909Z,0.57
2019-02-10T18:20:16.476Z,0.40
2019-02-10T18:22:46.589Z,0.40
2019-02-10T18:25:19.407Z,0.40
2019-02-10T18:27:58.313Z,0.40
2019-02-10T18:30:30.877Z,0.60
2019-02-10T18:33:10.157Z,0.40
2019-02-10T18:35:49.020Z,0.33
2019-02-10T18:38:28.268Z,0.73
2019-02-10T18:41:01.012Z,0.50
2019-02-10T18:43:42.777Z,0.50
2019-02-10T18:46:13.076Z,0.60
2019-02-10T18:48:43.229Z,0.53
2019-02-10T18:51:13.294Z,0.40
2019-02-10T18:53:49.502Z,0.50
2019-02-10T18:56:19.553Z,0.60
2019-02-10T18:59:08.003Z,0.40
2019-02-10T19:01:38.100Z,0.40
2019-02-10T19:04:14.115Z,0.50
2019-02-10T19:06:53.308Z,0.50
2019-02-10T19:09:29.399Z,0.63
2019-02-10T19:12:02.531Z,0.70
2019-02-10T19:14:35.433Z,0.50
2019-02-10T19:17:22.157Z,0.60
2019-02-10T19:19:55.307Z,0.60
2019-02-10T19:22:25.597Z,0.40
2019-02-10T19:24:56.063Z,0.60
2019-02-10T19:27:28.585Z,0.50
2019-02-10T19:30:01.364Z,0.57
2019-02-10T19:32:31.481Z,0.50
2019-02-10T19:35:13.630Z,0.77
2019-02-10T19:37:46.410Z,0.70
2019-02-10T19:40:16.508Z,0.60
2019-02-10T19:43:02.920Z,0.70
2019-02-10T19:45:35.996Z,0.70
2019-02-10T19:48:06.073Z,0.90
2019-02-10T19:50:36.159Z,1.20
2019-02-10T19:53:12.750Z,1.40
2019-02-10T19:55:55.440Z,1.00
2019-02-10T19:58:31.291Z,1.20
2019-02-10T20:01:04.153Z,1.30
2019-02-10T20:03:46.237Z,0.70
2019-02-10T20:06:16.419Z,0.70
2019-02-10T20:09:02.926Z,0.77
2019-02-10T20:11:33.108Z,1.10
2019-02-10T20:14:06.157Z,1.23
2019-02-10T20:16:51.236Z,0.80
2019-02-10T20:19:33.115Z,0.80
2019-02-10T20:22:03.213Z,0.90
2019-02-10T20:24:49.915Z,0.73
2019-02-10T20:27:26.148Z,0.60
2019-02-10T20:29:56.267Z,0.97
2019-02-10T20:32:29.599Z,0.60
2019-02-10T20:34:59.681Z,0.60
2019-02-10T20:37:32.838Z,0.67
2019-02-10T20:40:09.052Z,0.73
2019-02-10T20:42:45.017Z,0.53
2019-02-10T20:45:18.196Z,0.70
2019-02-10T20:47:50.884Z,0.50
2019-02-10T20:50:23.657Z,0.80
2019-02-10T20:52:53.815Z,0.77
2019-02-10T20:55:26.465Z,0.77
2019-02-10T20:57:56.567Z,0.60
2019-02-10T21:00:26.728Z,0.90
2019-02-10T21:03:15.070Z,0.50
2019-02-10T21:06:01.743Z,1.00
2019-02-10T21:08:31.853Z,0.90
2019-02-10T21:11:18.687Z,0.80
2019-02-10T21:13:51.470Z,0.87
2019-02-10T21:16:33.593Z,1.00
2019-02-10T21:19:12.720Z,0.80
2019-02-10T21:24:17.463Z,0.70
2019-02-10T21:26:56.451Z,0.70
2019-02-10T21:29:32.582Z,0.97
2019-02-10T21:32:05.227Z,0.97
2019-02-10T21:34:41.400Z,0.80
2019-02-10T21:37:11.500Z,0.60
2019-02-10T21:39:41.606Z,0.70
2019-02-10T21:42:11.741Z,0.50
2019-02-10T21:44:45.144Z,0.50
2019-02-10T21:47:15.297Z,0.73
2019-02-10T21:49:43.750Z,0.90
2019-02-10T21:52:12.195Z,0.60
2019-02-10T21:54:40.724Z,0.50
2019-02-10T21:57:09.285Z,0.77
2019-02-10T21:59:37.743Z,0.60
2019-02-10T22:02:06.206Z,0.60
2019-02-10T22:04:34.675Z,0.70
2019-02-10T22:07:03.116Z,1.03
2019-02-10T22:09:31.586Z,0.60
2019-02-10T22:12:00.030Z,0.80
2019-02-10T22:14:28.505Z,0.60
2019-02-10T22:16:56.954Z,0.50
2019-02-10T22:19:25.432Z,0.60
2019-02-10T22:21:53.881Z,0.50
2019-02-10T22:24:22.342Z,0.50
2019-02-10T22:26:50.801Z,0.47
2019-02-10T22:29:19.706Z,0.70
2019-02-10T22:31:48.487Z,0.50
2019-02-10T22:34:16.945Z,0.60
2019-02-10T22:36:45.499Z,0.60
2019-02-10T22:39:13.955Z,0.70
2019-02-10T22:41:42.414Z,0.90
2019-02-10T22:44:10.863Z,0.80
2019-02-10T22:46:39.318Z,0.60
2019-02-10T22:49:07.782Z,0.60
2019-02-10T22:51:36.306Z,0.60
2019-02-10T22:54:04.779Z,0.70
2019-02-10T22:56:33.318Z,0.47
2019-02-10T22:59:01.822Z,0.50
2019-02-10T23:01:30.860Z,0.60
2019-02-10T23:03:59.323Z,0.60
2019-02-10T23:06:27.777Z,0.60
2019-02-10T23:08:56.225Z,0.60
2019-02-10T23:11:24.707Z,0.60
2019-02-10T23:13:53.285Z,0.73
2019-02-10T23:16:21.743Z,0.60
2019-02-10T23:18:50.223Z,0.60
2019-02-10T23:21:18.694Z,0.50
2019-02-10T23:23:47.150Z,0.50
2019-02-10T23:26:15.620Z,0.87
2019-02-10T23:28:44.111Z,0.60
2019-02-10T23:31:12.613Z,0.60
2019-02-10T23:33:41.066Z,0.80
2019-02-10T23:36:09.555Z,0.70
2019-02-10T23:38:38.008Z,0.57
2019-02-10T23:41:06.460Z,0.60
2019-02-10T23:43:34.904Z,0.50
2019-02-10T23:46:03.354Z,0.50
2019-02-10T23:48:31.847Z,0.70
2019-02-10T23:51:00.312Z,0.60
2019-02-10T23:53:28.770Z,0.60
2019-02-10T23:55:57.218Z,0.60
2019-02-10T23:58:25.697Z,0.60
